Time;durP1;ratioP1;P1;durP2;ratioP2;P2;SDS_P1;SDS_P2;PMS_P1;PMS_P2;Temp;Humidity;BMP_temperature;BMP_pressure;BME280_temperature;BME280_humidity;BME280_pressure;Samples;Min_cycle;Max_cycle;Signal;HPM_P1;HPM_P2
2022/01/31 00:01:52;;;;;;;9.90;3.20;;;;;;;4.31;69.58;95768.81;4352435;32;20407;-59
2022/01/31 00:04:20;;;;;;;6.83;2.90;;;;;;;4.29;69.42;95753.31;4359702;32;20192;-59
2022/01/31 00:06:50;;;;;;;4.17;2.70;;;;;;;4.56;68.68;95740.25;4382373;32;20276;-58
2022/01/31 00:09:17;;;;;;;4.03;2.30;;;;;;;4.66;68.39;95716.72;4359980;32;20356;-58
2022/01/31 00:11:53;;;;;;;4.73;2.20;;;;;;;4.68;67.96;95700.72;4371537;32;20305;-59
2022/01/31 00:17:14;;;;;;;6.17;2.63;;;;;;;4.83;67.42;95685.88;4317666;32;20306;-59
2022/01/31 00:19:41;;;;;;;8.43;2.90;;;;;;;4.66;67.70;95689.66;4308473;32;20360;-60
2022/01/31 00:22:13;;;;;;;8.47;2.53;;;;;;;4.64;67.98;95679.37;4337577;32;20208;-65
2022/01/31 00:24:41;;;;;;;6.70;2.37;;;;;;;4.60;68.16;95682.75;4333233;32;20331;-59
2022/01/31 00:27:09;;;;;;;7.67;2.27;;;;;;;4.31;68.86;95679.53;4358710;32;20326;-66
2022/01/31 00:29:39;;;;;;;4.17;2.70;;;;;;;4.33;69.02;95675.62;4355811;32;20281;-59
2022/01/31 00:32:06;;;;;;;6.33;3.00;;;;;;;4.42;69.18;95679.41;4355099;32;20285;-59
2022/01/31 00:34:32;;;;;;;7.53;2.47;;;;;;;4.60;68.71;95667.78;4344003;32;20284;-59
2022/01/31 00:36:58;;;;;;;6.37;2.40;;;;;;;4.63;68.15;95669.91;4376406;32;20307;-58
2022/01/31 00:39:25;;;;;;;3.53;2.07;;;;;;;4.59;68.32;95670.63;4355239;32;20281;-59
2022/01/31 00:41:52;;;;;;;4.80;2.40;;;;;;;4.62;68.50;95657.81;4374211;32;20223;-58
2022/01/31 00:44:26;;;;;;;5.23;2.80;;;;;;;4.64;68.53;95662.81;4359370;32;20313;-58
2022/01/31 00:46:59;;;;;;;6.07;2.10;;;;;;;4.40;69.03;95644.72;4384618;32;20329;-59
2022/01/31 00:51:59;;;;;;;6.17;2.43;;;;;;;4.65;68.67;95632.88;4391340;32;20379;-59
2022/01/31 00:54:25;;;;;;;5.47;2.90;;;;;;;4.77;68.21;95618.56;4377528;32;20293;-59
2022/01/31 00:56:52;;;;;;;8.63;2.93;;;;;;;4.97;67.53;95617.97;4370025;32;20316;-58
2022/01/31 00:59:18;;;;;;;6.30;2.33;;;;;;;4.86;67.65;95623.34;4384758;32;20203;-59
2022/01/31 01:01:45;;;;;;;7.07;2.40;;;;;;;4.76;67.92;95606.47;4389146;32;20264;-59
2022/01/31 01:04:11;;;;;;;10.67;2.90;;;;;;;4.51;69.12;95608.84;4370006;32;20320;-59
2022/01/31 01:06:37;;;;;;;5.30;2.43;;;;;;;4.69;68.99;95612.97;4381419;32;20273;-60
2022/01/31 01:09:03;;;;;;;5.40;2.43;;;;;;;4.83;68.38;95628.06;4366096;32;20327;-58
2022/01/31 01:11:28;;;;;;;5.40;2.67;;;;;;;4.74;68.66;95595.41;4363961;32;20299;-59
2022/01/31 01:13:55;;;;;;;5.93;2.60;;;;;;;4.86;68.56;95604.97;4368954;32;20192;-59
2022/01/31 01:16:21;;;;;;;4.47;2.30;;;;;;;4.81;68.46;95595.97;4381648;32;20247;-59
2022/01/31 01:18:48;;;;;;;5.53;3.23;;;;;;;4.84;68.45;95603.37;4379431;32;20381;-58
2022/01/31 01:21:13;;;;;;;5.27;2.63;;;;;;;4.50;69.38;95609.88;4375247;32;20292;-59
2022/01/31 01:23:38;;;;;;;5.40;2.60;;;;;;;4.76;68.84;95589.91;4371025;32;20297;-59
2022/01/31 01:26:08;;;;;;;7.20;2.57;;;;;;;4.52;69.55;95580.75;4365764;32;20188;-59
2022/01/31 01:28:35;;;;;;;5.13;2.63;;;;;;;4.63;69.55;95577.97;4359202;32;20193;-58
2022/01/31 01:31:01;;;;;;;6.90;2.60;;;;;;;4.79;68.85;95563.09;4337340;32;20282;-58
2022/01/31 01:33:26;;;;;;;6.43;2.87;;;;;;;4.60;69.79;95581.06;4329433;32;20454;-59
2022/01/31 01:35:55;;;;;;;5.40;2.63;;;;;;;4.63;69.91;95566.66;4351380;32;20268;-59
2022/01/31 01:38:27;;;;;;;7.83;2.63;;;;;;;4.67;69.65;95565.91;4370947;32;20260;-59
2022/01/31 01:40:55;;;;;;;6.80;2.70;;;;;;;4.79;69.28;95563.91;4353438;32;20273;-59
2022/01/31 01:43:20;;;;;;;4.53;2.87;;;;;;;4.77;69.79;95559.97;4347855;32;20328;-58
2022/01/31 01:45:51;;;;;;;5.03;2.60;;;;;;;4.71;69.87;95559.13;4358730;32;20297;-59
2022/01/31 01:48:18;;;;;;;6.27;2.90;;;;;;;4.62;70.03;95552.72;4344371;32;20339;-60
2022/01/31 01:50:43;;;;;;;6.87;2.70;;;;;;;4.78;69.69;95536.03;4348872;32;20303;-59
2022/01/31 01:53:13;;;;;;;7.50;2.80;;;;;;;4.69;70.26;95532.31;4378384;32;20284;-59
2022/01/31 01:55:39;;;;;;;5.93;2.40;;;;;;;4.58;70.60;95501.72;4336075;32;20238;-58
2022/01/31 01:58:15;;;;;;;8.33;2.50;;;;;;;4.72;70.35;95494.22;4361698;32;20281;-59
2022/01/31 02:00:51;;;;;;;6.60;2.47;;;;;;;4.74;70.35;95492.94;4353985;32;20235;-59
2022/01/31 02:03:23;;;;;;;5.40;2.57;;;;;;;4.59;70.87;95492.00;4358129;32;20299;-59
2022/01/31 02:05:50;;;;;;;5.67;3.10;;;;;;;4.64;70.45;95484.97;4375973;32;20322;-59
2022/01/31 02:08:18;;;;;;;6.93;3.00;;;;;;;4.71;70.41;95469.78;4352975;32;20356;-59
2022/01/31 02:10:45;;;;;;;10.37;3.23;;;;;;;4.65;70.60;95435.84;4334204;32;20281;-59
2022/01/31 02:13:11;;;;;;;5.33;2.23;;;;;;;4.48;71.51;95436.78;4366901;32;20319;-60
2022/01/31 02:15:38;;;;;;;8.57;3.30;;;;;;;4.62;71.32;95426.63;4358561;32;20296;-62
2022/01/31 02:18:05;;;;;;;8.17;3.00;;;;;;;4.62;71.04;95425.84;4347665;32;20288;-59
2022/01/31 02:20:38;;;;;;;8.40;3.27;;;;;;;4.69;70.66;95421.94;4365040;32;20370;-59
2022/01/31 02:23:05;;;;;;;3.87;2.60;;;;;;;4.70;71.04;95418.28;4354330;32;20281;-59
2022/01/31 02:25:32;;;;;;;5.27;2.67;;;;;;;4.71;70.97;95424.31;4364585;32;20284;-59
2022/01/31 02:27:59;;;;;;;7.17;2.63;;;;;;;4.65;71.17;95426.13;4370466;32;20378;-59
2022/01/31 02:30:25;;;;;;;6.53;2.97;;;;;;;4.52;71.51;95415.28;4334895;32;20305;-59
2022/01/31 02:32:50;;;;;;;8.00;3.17;;;;;;;4.38;71.98;95412.28;4321984;32;20324;-59
2022/01/31 02:35:17;;;;;;;4.30;2.80;;;;;;;4.46;71.87;95390.81;4308818;32;20284;-59
2022/01/31 02:37:43;;;;;;;5.60;2.83;;;;;;;4.47;71.63;95387.13;4355405;32;20199;-59
2022/01/31 02:40:10;;;;;;;6.13;2.93;;;;;;;4.40;72.22;95394.44;4336105;32;20440;-59
2022/01/31 02:42:36;;;;;;;6.00;3.10;;;;;;;4.61;71.96;95385.62;4368886;32;20330;-59
2022/01/31 02:45:03;;;;;;;4.87;2.37;;;;;;;4.75;71.00;95373.66;4357182;32;20305;-59
2022/01/31 02:47:35;;;;;;;3.20;2.60;;;;;;;4.71;71.50;95372.56;4354558;32;20185;-60
2022/01/31 02:50:08;;;;;;;3.73;2.50;;;;;;;4.52;71.88;95368.78;4340821;32;20367;-59
2022/01/31 02:52:36;;;;;;;4.57;2.73;;;;;;;4.61;71.46;95377.75;4355194;32;20285;-59
2022/01/31 02:55:04;;;;;;;4.23;2.90;;;;;;;4.52;71.85;95381.91;4342604;32;20299;-59
2022/01/31 02:57:31;;;;;;;9.97;2.97;;;;;;;4.54;72.09;95361.44;4349277;32;20281;-59
2022/01/31 02:59:58;;;;;;;7.67;2.90;;;;;;;4.54;72.10;95355.41;4357309;32;20375;-59
2022/01/31 03:02:26;;;;;;;3.93;2.90;;;;;;;4.39;72.73;95359.50;4385927;32;20303;-59
2022/01/31 03:04:51;;;;;;;5.83;2.60;;;;;;;4.40;72.44;95341.91;4369360;32;20318;-59
2022/01/31 03:07:17;;;;;;;10.10;4.23;;;;;;;4.44;72.52;95346.41;4363437;32;20285;-59
2022/01/31 03:09:44;;;;;;;7.27;2.93;;;;;;;4.16;73.50;95330.22;4332613;32;20193;-59
2022/01/31 03:12:13;;;;;;;4.40;2.97;;;;;;;4.22;73.31;95321.31;4345660;32;20203;-59
2022/01/31 03:14:42;;;;;;;7.27;2.93;;;;;;;4.01;74.63;95312.53;4350499;32;20281;-59
2022/01/31 03:17:09;;;;;;;10.30;3.63;;;;;;;4.10;74.37;95309.19;4365851;32;20268;-60
2022/01/31 03:19:40;;;;;;;11.27;3.57;;;;;;;4.21;74.15;95293.47;4363100;32;20297;-58
2022/01/31 03:22:07;;;;;;;9.90;3.30;;;;;;;4.24;73.57;95287.72;4378704;32;20295;-59
2022/01/31 03:24:34;;;;;;;6.93;2.60;;;;;;;4.20;73.44;95299.78;4368087;32;20273;-58
2022/01/31 03:26:59;;;;;;;5.93;3.07;;;;;;;4.23;73.75;95296.66;4338654;32;20276;-58
2022/01/31 03:29:26;;;;;;;6.43;2.50;;;;;;;4.13;73.73;95287.69;4354139;32;20297;-58
2022/01/31 03:31:55;;;;;;;9.37;3.03;;;;;;;4.23;73.52;95299.28;4349492;32;20286;-58
2022/01/31 03:34:21;;;;;;;6.60;2.43;;;;;;;4.38;72.95;95294.09;4363874;32;20323;-59
2022/01/31 03:36:47;;;;;;;7.47;3.10;;;;;;;4.18;73.56;95288.72;4346504;32;20375;-58
2022/01/31 03:39:15;;;;;;;6.77;2.60;;;;;;;4.13;74.03;95285.06;4345529;32;20178;-59
2022/01/31 03:41:41;;;;;;;4.50;2.73;;;;;;;4.06;74.43;95286.31;4368690;32;20269;-58
2022/01/31 03:44:08;;;;;;;3.97;2.37;;;;;;;4.23;73.73;95281.69;4354712;32;20368;-64
2022/01/31 03:46:35;;;;;;;7.30;2.67;;;;;;;4.23;73.72;95263.31;4355127;32;20278;-59
2022/01/31 03:49:02;;;;;;;7.90;2.77;;;;;;;3.95;74.52;95251.31;4375953;32;20333;-59
2022/01/31 03:51:29;;;;;;;7.03;2.90;;;;;;;4.07;74.46;95251.16;4363016;32;20395;-59
2022/01/31 03:53:56;;;;;;;7.40;3.27;;;;;;;4.13;74.48;95235.19;4360033;32;20277;-58
2022/01/31 03:56:21;;;;;;;6.20;2.73;;;;;;;3.91;74.76;95233.75;4355972;32;20309;-58
2022/01/31 03:58:47;;;;;;;6.13;3.07;;;;;;;4.10;74.58;95221.78;4383184;32;20267;-59
2022/01/31 04:01:14;;;;;;;7.60;2.53;;;;;;;4.31;73.71;95209.53;4356645;32;20236;-59
2022/01/31 04:03:41;;;;;;;5.63;3.50;;;;;;;4.14;74.07;95221.03;4338077;32;20247;-58
2022/01/31 04:06:06;;;;;;;6.53;3.00;;;;;;;4.06;74.53;95213.63;4369287;32;20302;-58
2022/01/31 04:08:32;;;;;;;6.97;2.90;;;;;;;4.17;74.26;95201.31;4351442;32;20269;-59
2022/01/31 04:10:57;;;;;;;8.63;2.67;;;;;;;4.22;74.03;95192.69;4360214;32;20202;-58
2022/01/31 04:13:23;;;;;;;4.53;2.80;;;;;;;4.24;74.13;95166.97;4356639;32;20219;-59
2022/01/31 04:15:48;;;;;;;6.03;2.60;;;;;;;4.13;73.77;95155.66;4378072;32;20222;-59
2022/01/31 04:18:15;;;;;;;6.70;3.10;;;;;;;4.28;73.62;95152.28;4346552;32;20193;-59
2022/01/31 04:20:40;;;;;;;9.67;3.10;;;;;;;4.31;73.90;95157.03;4366664;32;20183;-58
2022/01/31 04:23:11;;;;;;;3.80;2.77;;;;;;;4.36;73.48;95160.47;4361511;32;20288;-59
2022/01/31 04:25:46;;;;;;;4.47;2.40;;;;;;;4.30;73.66;95140.47;4356010;32;20281;-65
2022/01/31 04:28:32;;;;;;;7.33;2.97;;;;;;;4.13;74.37;95124.16;4351940;32;20303;-58
2022/01/31 04:33:27;;;;;;;7.00;2.73;;;;;;;4.27;73.92;95120.00;4364106;32;20289;-59
2022/01/31 04:35:55;;;;;;;6.00;2.80;;;;;;;4.12;74.73;95107.63;4369294;32;20269;-59
2022/01/31 04:38:22;;;;;;;9.43;3.07;;;;;;;4.29;74.66;95104.00;4363720;32;20291;-58
2022/01/31 04:40:48;;;;;;;5.20;2.53;;;;;;;4.29;74.13;95106.59;4342095;32;20356;-59
2022/01/31 04:43:14;;;;;;;4.57;2.30;;;;;;;4.32;74.28;95108.72;4357968;32;20293;-59
2022/01/31 04:45:47;;;;;;;5.47;2.70;;;;;;;4.35;74.31;95114.25;4365848;32;20269;-59
2022/01/31 04:48:20;;;;;;;6.20;2.80;;;;;;;4.11;74.78;95113.13;4348034;32;20285;-59
2022/01/31 04:50:46;;;;;;;6.50;2.73;;;;;;;4.20;74.73;95093.19;4340536;32;20266;-58
2022/01/31 04:53:13;;;;;;;4.00;2.70;;;;;;;4.04;75.42;95070.56;4346992;32;20352;-58
2022/01/31 04:55:42;;;;;;;7.30;3.30;;;;;;;4.21;74.96;95060.63;4347871;32;20357;-59
2022/01/31 04:58:08;;;;;;;7.93;2.93;;;;;;;4.36;74.70;95044.16;4332805;32;20286;-59
2022/01/31 05:00:34;;;;;;;8.67;3.27;;;;;;;4.55;73.74;95028.66;4321097;32;20400;-59
2022/01/31 05:03:00;;;;;;;7.03;3.50;;;;;;;4.80;72.59;95018.91;4366850;32;20287;-59
2022/01/31 05:05:28;;;;;;;4.43;2.17;;;;;;;4.95;71.84;95019.97;4353712;32;20276;-58
2022/01/31 05:07:55;;;;;;;4.77;3.00;;;;;;;4.95;71.85;95030.50;4349773;32;20185;-59
2022/01/31 05:10:21;;;;;;;6.70;2.67;;;;;;;4.53;73.42;95042.06;4369959;32;20362;-59
2022/01/31 05:12:47;;;;;;;4.83;2.70;;;;;;;4.38;74.10;95053.31;4352017;32;20277;-59
2022/01/31 05:15:15;;;;;;;5.17;2.73;;;;;;;4.44;74.17;95033.91;4348590;32;20351;-58
2022/01/31 05:17:42;;;;;;;3.83;2.23;;;;;;;4.39;74.49;95036.50;4373595;32;20204;-58
2022/01/31 05:20:08;;;;;;;5.47;3.10;;;;;;;4.32;74.58;95037.84;4359515;32;20314;-59
2022/01/31 05:22:34;;;;;;;10.80;3.07;;;;;;;4.09;76.05;95024.16;4372696;32;20346;-58
2022/01/31 05:25:01;;;;;;;3.30;2.50;;;;;;;4.14;76.44;95000.53;4351999;32;20189;-58
2022/01/31 05:27:26;;;;;;;5.07;2.97;;;;;;;3.96;77.31;94998.38;4365357;32;20301;-59
2022/01/31 05:29:51;;;;;;;5.80;3.17;;;;;;;4.11;76.71;94984.53;4381369;32;20281;-58
2022/01/31 05:32:21;;;;;;;6.17;3.23;;;;;;;3.97;77.59;94984.22;4352871;32;20209;-58
2022/01/31 05:34:46;;;;;;;8.17;3.53;;;;;;;4.22;76.76;94974.81;4386593;32;20243;-58
2022/01/31 05:37:13;;;;;;;6.20;3.20;;;;;;;4.03;77.76;94980.56;4373668;32;20296;-59
2022/01/31 05:39:43;;;;;;;7.17;3.27;;;;;;;4.02;78.19;94986.06;4384406;32;20171;-58
2022/01/31 05:42:11;;;;;;;7.43;4.37;;;;;;;4.02;78.44;94992.09;4336836;32;20275;-59
2022/01/31 05:44:38;;;;;;;7.97;3.90;;;;;;;4.05;78.36;94988.19;4313121;32;20325;-58
2022/01/31 05:47:08;;;;;;;5.57;3.40;;;;;;;4.10;78.32;94988.19;4368265;32;20283;-58
2022/01/31 05:49:34;;;;;;;9.40;4.33;;;;;;;4.03;79.00;94982.41;4372273;32;20325;-59
2022/01/31 05:52:07;;;;;;;5.57;3.37;;;;;;;4.04;78.93;94974.25;4354776;32;20273;-58
2022/01/31 05:54:35;;;;;;;7.07;3.33;;;;;;;4.06;79.04;94984.50;4362007;32;20320;-58
2022/01/31 05:57:00;;;;;;;6.37;3.90;;;;;;;4.07;79.19;94981.62;4357848;32;20285;-59
2022/01/31 05:59:35;;;;;;;5.93;4.00;;;;;;;3.99;79.89;94974.25;4359105;32;20346;-58
2022/01/31 06:02:01;;;;;;;6.33;4.23;;;;;;;4.00;80.26;94972.41;4334128;32;20497;-58
2022/01/31 06:04:31;;;;;;;8.47;4.30;;;;;;;4.16;79.93;94968.00;4354688;32;20301;-57
2022/01/31 06:07:18;;;;;;;5.60;4.67;;;;;;;4.14;80.08;94961.16;4359412;32;20265;-57
2022/01/31 06:09:44;;;;;;;8.20;4.30;;;;;;;4.11;80.20;94980.06;4338528;32;20339;-57
2022/01/31 06:12:12;;;;;;;5.43;4.30;;;;;;;4.06;80.70;94976.63;4349376;32;20368;-59
2022/01/31 06:14:39;;;;;;;5.03;4.57;;;;;;;4.00;81.27;94972.41;4370124;32;20278;-58
2022/01/31 06:17:06;;;;;;;5.27;4.77;;;;;;;4.03;81.38;94977.94;4346349;32;20348;-58
2022/01/31 06:19:33;;;;;;;4.20;3.43;;;;;;;4.13;80.32;94991.09;4370873;32;20310;-58
2022/01/31 06:22:02;;;;;;;4.97;4.20;;;;;;;3.92;79.79;94971.13;4373839;32;20277;-58
2022/01/31 06:24:28;;;;;;;5.30;3.90;;;;;;;3.97;79.37;94971.09;4372227;32;20450;-59
2022/01/31 06:26:54;;;;;;;3.67;3.37;;;;;;;4.06;78.24;94961.69;4368924;32;20283;-59
2022/01/31 06:29:21;;;;;;;3.93;3.30;;;;;;;4.00;78.17;94951.44;4359176;32;20203;-59
2022/01/31 06:31:46;;;;;;;4.07;3.63;;;;;;;3.90;77.60;94931.22;4345988;32;20268;-59
2022/01/31 06:34:14;;;;;;;5.70;3.33;;;;;;;3.88;78.02;94932.53;4362070;32;20332;-59
2022/01/31 06:36:42;;;;;;;6.33;3.23;;;;;;;4.01;76.93;94940.66;4375056;32;20180;-59
2022/01/31 06:39:08;;;;;;;6.27;3.33;;;;;;;4.12;75.79;94929.16;4376304;32;20358;-61
2022/01/31 06:41:35;;;;;;;4.80;3.13;;;;;;;4.07;75.24;94926.50;4374050;32;20273;-59
2022/01/31 06:44:03;;;;;;;4.97;2.77;;;;;;;3.98;75.11;94920.19;4351206;32;20273;-59
2022/01/31 06:46:30;;;;;;;4.50;2.97;;;;;;;4.03;74.58;94922.81;4354706;32;20407;-59
2022/01/31 06:48:56;;;;;;;6.10;2.80;;;;;;;4.07;74.13;94909.97;4337085;32;20294;-59
2022/01/31 06:51:23;;;;;;;4.33;2.30;;;;;;;3.94;74.17;94900.81;4352334;32;20339;-59
2022/01/31 06:53:49;;;;;;;4.67;2.27;;;;;;;3.93;74.36;94906.31;4361482;32;20204;-59
2022/01/31 06:56:16;;;;;;;5.80;2.67;;;;;;;3.89;74.29;94902.63;4381275;32;20273;-59
2022/01/31 06:58:52;;;;;;;4.47;2.30;;;;;;;3.92;73.94;94881.91;4351273;32;20374;-63
2022/01/31 07:01:24;;;;;;;6.70;2.40;;;;;;;3.99;73.26;94871.91;4312779;32;20376;-59
2022/01/31 07:04:01;;;;;;;6.07;3.07;;;;;;;3.90;73.75;94889.25;4338269;32;20292;-59
2022/01/31 07:06:28;;;;;;;3.33;2.13;;;;;;;4.02;73.13;94875.84;4335660;32;20447;-59
2022/01/31 07:08:54;;;;;;;7.00;2.50;;;;;;;4.07;73.28;94875.84;4365169;32;20285;-59
2022/01/31 07:11:23;;;;;;;4.40;2.17;;;;;;;4.17;73.17;94875.06;4354805;32;20304;-60
2022/01/31 07:14:00;;;;;;;5.77;2.40;;;;;;;4.25;72.99;94859.56;4328873;32;20201;-59
2022/01/31 07:16:27;;;;;;;5.67;2.50;;;;;;;4.16;72.79;94861.13;4337380;32;20369;-59
2022/01/31 07:18:59;;;;;;;7.30;2.33;;;;;;;4.04;73.08;94860.62;4331230;32;20294;-59
2022/01/31 07:21:32;;;;;;;6.23;2.20;;;;;;;3.84;74.22;94866.69;4339737;32;20292;-59
2022/01/31 07:26:54;;;;;;;32.90;5.33;;;;;;;4.03;74.89;94830.19;4360420;32;20339;-44
2022/01/31 07:29:22;;;;;;;12.70;4.37;;;;;;;6.14;94.05;94834.72;4357558;32;20281;-43
2022/01/31 07:31:49;;;;;;;6.50;2.70;;;;;;;7.79;87.62;94822.72;4345969;32;20351;-43
2022/01/31 07:34:17;;;;;;;6.07;2.00;;;;;;;8.69;69.65;94798.47;4361290;32;20337;-47
2022/01/31 07:36:43;;;;;;;5.30;2.13;;;;;;;9.95;67.40;94792.28;4358489;32;20331;-43
2022/01/31 07:39:08;;;;;;;5.37;2.30;;;;;;;10.44;61.62;94798.50;4349455;32;20278;-42
2022/01/31 07:41:35;;;;;;;2.03;1.83;;;;;;;10.72;59.42;94783.19;4371039;32;20287;-44
2022/01/31 07:44:02;;;;;;;5.07;1.60;;;;;;;9.94;59.76;94774.03;4356422;32;20227;-43
2022/01/31 07:46:35;;;;;;;7.13;1.90;;;;;;;10.13;58.38;94760.59;4355576;32;20360;-45
2022/01/31 07:49:03;;;;;;;5.20;2.40;;;;;;;10.73;59.04;94747.63;4383121;32;20291;-43
2022/01/31 07:51:31;;;;;;;3.50;1.50;;;;;;;10.92;56.46;94740.16;4334635;32;20269;-43
2022/01/31 07:53:57;;;;;;;3.07;1.90;;;;;;;10.68;57.65;94743.22;4340961;32;20315;-43
2022/01/31 07:56:23;;;;;;;4.27;1.70;;;;;;;11.27;57.61;94734.91;4362071;32;20181;-45
2022/01/31 07:58:48;;;;;;;3.00;1.60;;;;;;;11.23;56.33;94748.00;4349861;32;20245;-43
2022/01/31 08:01:14;;;;;;;3.23;2.10;;;;;;;11.10;56.51;94729.56;4372474;32;20204;-44
2022/01/31 08:03:41;;;;;;;3.70;1.63;;;;;;;11.11;54.42;94729.25;4358248;32;20188;-45
2022/01/31 08:06:06;;;;;;;3.83;1.80;;;;;;;11.41;54.03;94719.59;4354011;32;20219;-43
2022/01/31 08:08:35;;;;;;;1.73;1.60;;;;;;;11.17;54.37;94706.78;4365744;32;20181;-44
2022/01/31 08:11:14;;;;;;;5.63;1.73;;;;;;;11.16;53.71;94704.44;4372451;32;20193;-44
2022/01/31 08:13:39;;;;;;;4.13;1.60;;;;;;;10.92;54.80;94686.31;4371587;32;20235;-44
2022/01/31 08:16:13;;;;;;;4.60;1.93;;;;;;;10.99;54.44;94690.06;4364829;32;20254;-43
2022/01/31 08:18:44;;;;;;;5.13;2.10;;;;;;;11.12;55.38;94687.56;4342624;32;20211;-44
2022/01/31 08:21:14;;;;;;;2.77;1.50;;;;;;;10.29;56.64;94696.31;4376445;32;20188;-47
2022/01/31 08:23:46;;;;;;;4.43;1.63;;;;;;;10.44;55.66;94673.09;4355223;32;20272;-45
2022/01/31 08:26:17;;;;;;;5.07;1.83;;;;;;;10.52;57.18;94669.69;4341978;32;20196;-43
2022/01/31 08:31:46;;;;;;;3.53;1.83;;;;;;;9.82;57.39;94670.47;4341939;32;20188;-43
2022/01/31 08:36:55;;;;;;;2.43;1.67;;;;;;;9.57;57.64;94667.38;4390991;32;20199;-43
2022/01/31 08:39:22;;;;;;;2.30;1.40;;;;;;;10.11;57.93;94675.31;4386155;32;20184;-44
2022/01/31 08:41:51;;;;;;;3.07;1.60;;;;;;;10.13;56.67;94679.22;4378903;32;20184;-45
2022/01/31 08:44:23;;;;;;;6.17;1.97;;;;;;;9.45;59.29;94676.97;4343030;32;20307;-58
2022/01/31 08:46:54;;;;;;;3.53;2.00;;;;;;;7.55;65.52;94699.53;4367024;32;20285;-58
2022/01/31 08:49:20;;;;;;;2.77;1.80;;;;;;;6.38;71.86;94684.62;4341178;32;20290;-59
2022/01/31 08:51:46;;;;;;;2.63;2.23;;;;;;;5.91;74.99;94698.56;4341659;32;20304;-60
2022/01/31 08:54:12;;;;;;;4.10;2.00;;;;;;;5.80;77.12;94689.19;4335530;32;20270;-59
2022/01/31 08:56:40;;;;;;;2.40;2.20;;;;;;;5.49;78.94;94683.41;4362614;32;20335;-59
2022/01/31 08:59:32;;;;;;;3.87;1.97;;;;;;;5.26;80.25;94674.41;4365147;32;20296;-59
2022/01/31 09:02:12;;;;;;;2.73;2.37;;;;;;;5.29;81.33;94683.59;4357329;32;20453;-59
2022/01/31 09:04:52;;;;;;;2.87;2.50;;;;;;;5.11;82.32;94682.41;4344435;32;20284;-60
2022/01/31 09:07:31;;;;;;;3.10;2.80;;;;;;;4.80;84.29;94681.81;4377979;32;20356;-59
2022/01/31 09:09:59;;;;;;;2.33;2.20;;;;;;;4.83;84.94;94661.03;4362260;32;20312;-57
2022/01/31 09:12:31;;;;;;;3.00;2.40;;;;;;;4.87;85.54;94671.00;4323553;32;20395;-59
2022/01/31 09:14:56;;;;;;;4.57;2.60;;;;;;;4.73;85.44;94666.37;4326856;32;20291;-60
2022/01/31 09:17:25;;;;;;;3.53;2.27;;;;;;;4.65;85.33;94664.31;4317810;32;20332;-58
2022/01/31 09:19:52;;;;;;;6.33;2.73;;;;;;;4.62;86.54;94664.84;4350226;32;20173;-58
2022/01/31 09:22:19;;;;;;;2.97;2.07;;;;;;;4.64;85.97;94659.34;4348859;32;20292;-59
2022/01/31 09:24:50;;;;;;;2.83;2.03;;;;;;;4.66;86.00;94650.13;4320918;32;20273;-58
2022/01/31 09:27:21;;;;;;;2.53;2.10;;;;;;;4.71;85.29;94668.50;4291483;32;20311;-56
2022/01/31 09:29:48;;;;;;;2.30;2.10;;;;;;;4.48;86.72;94656.81;4355290;32;20284;-59
2022/01/31 09:32:20;;;;;;;4.23;2.43;;;;;;;4.40;86.01;94643.44;4329287;32;20280;-59
2022/01/31 09:34:51;;;;;;;3.93;2.20;;;;;;;4.56;86.34;94644.97;4344844;32;20296;-59
2022/01/31 09:37:23;;;;;;;2.87;2.67;;;;;;;4.80;86.00;94635.31;4338960;32;20277;-60
2022/01/31 09:39:51;;;;;;;2.30;1.97;;;;;;;4.66;86.40;94639.62;4371798;32;20343;-58
2022/01/31 09:42:27;;;;;;;3.67;2.33;;;;;;;4.62;86.05;94662.22;4321951;32;20297;-58
2022/01/31 09:45:15;;;;;;;2.87;2.30;;;;;;;4.84;86.58;94643.44;4311844;32;20298;-59
2022/01/31 09:50:30;;;;;;;3.00;2.20;;;;;;;4.66;87.52;94637.00;4293479;32;20392;-59
2022/01/31 09:53:00;;;;;;;4.53;2.00;;;;;;;4.59;87.13;94652.25;4318911;32;20295;-56
2022/01/31 09:55:31;;;;;;;4.23;2.17;;;;;;;4.56;88.20;94650.22;4608054;27;20309;-68
2022/01/31 09:57:56;;;;;;;1.83;1.70;;;;;;;4.57;89.01;94646.53;4340950;32;20331;-66
2022/01/31 10:05:52;;;;;;;2.03;1.73;;;;;;;4.62;88.84;94675.38;4537167;27;20301;-68
2022/01/31 10:08:18;;;;;;;1.83;1.67;;;;;;;4.80;88.63;94653.72;4311819;32;20301;-68
2022/01/31 10:10:45;;;;;;;2.03;1.60;;;;;;;4.77;88.72;94666.63;4310628;32;20229;-65
2022/01/31 10:16:29;;;;;;;6.67;2.23;;;;;;;4.52;89.34;94636.03;4310280;32;20296;-66
2022/01/31 10:18:59;;;;;;;2.63;1.67;;;;;;;4.53;89.50;94635.00;4312066;32;20282;-66
2022/01/31 10:21:25;;;;;;;2.00;1.90;;;;;;;4.69;89.17;94649.59;4314288;32;20313;-66
2022/01/31 10:23:51;;;;;;;2.27;2.00;;;;;;;4.73;88.88;94640.13;4311986;32;20278;-59
2022/01/31 10:26:34;;;;;;;1.70;1.60;;;;;;;4.67;89.35;94638.56;4304771;32;20260;-58
2022/01/31 10:29:14;;;;;;;3.60;1.73;;;;;;;4.98;88.23;94641.00;4313129;32;20232;-58
2022/01/31 10:31:58;;;;;;;1.83;1.40;;;;;;;4.86;88.14;94635.28;4307031;33;20352;-60
2022/01/31 10:34:25;;;;;;;2.10;1.90;;;;;;;4.92;87.72;94653.38;4287970;33;20288;-58
2022/01/31 10:36:54;;;;;;;1.57;1.47;;;;;;;4.99;87.29;94663.59;4310520;32;20289;-58
2022/01/31 10:45:28;;;;;;;5.67;2.00;;;;;;;5.05;86.12;94651.97;4307053;33;20298;-48
2022/01/31 10:53:48;;;;;;;1.30;0.80;;;;;;;13.63;59.08;94630.25;4292322;33;20275;-47
2022/01/31 10:56:16;;;;;;;0.70;0.70;;;;;;;14.05;54.76;94627.44;4311201;33;20166;-59
2022/01/31 10:58:59;;;;;;;1.00;0.70;;;;;;;10.83;58.86;94638.53;4311638;33;20185;-57
2022/01/31 11:01:26;;;;;;;0.70;0.70;;;;;;;8.95;65.36;94640.81;4311309;32;20171;-59
2022/01/31 11:03:53;;;;;;;1.67;1.57;;;;;;;7.85;70.79;94652.56;4321276;32;20291;-59
2022/01/31 11:06:20;;;;;;;0.67;0.67;;;;;;;7.14;74.68;94659.03;4317549;32;20275;-58
2022/01/31 11:08:46;;;;;;;0.93;0.93;;;;;;;6.47;77.57;94663.69;4317276;32;20278;-58
2022/01/31 11:11:12;;;;;;;1.40;0.50;;;;;;;6.31;79.69;94652.56;4319812;32;20297;-59
2022/01/31 11:13:38;;;;;;;4.50;3.27;;;;;;;5.81;82.57;94652.06;4319266;32;20326;-68
2022/01/31 11:16:08;;;;;;;1.00;1.00;;;;;;;5.75;83.61;94661.06;4317683;32;20182;-59
2022/01/31 11:18:35;;;;;;;2.80;1.80;;;;;;;5.66;84.37;94646.16;4320803;32;20293;-58
2022/01/31 11:21:06;;;;;;;4.37;3.57;;;;;;;5.48;85.62;94637.13;4321511;32;20270;-58
2022/01/31 11:23:38;;;;;;;0.83;0.83;;;;;;;5.65;84.57;94647.22;4317723;32;20309;-58
2022/01/31 11:26:12;;;;;;;1.40;1.30;;;;;;;5.49;83.87;94651.84;4312736;33;20265;-58
2022/01/31 11:28:41;;;;;;;3.33;2.30;;;;;;;5.28;84.76;94651.25;4316747;33;20339;-68
2022/01/31 11:31:07;;;;;;;2.00;0.80;;;;;;;5.18;84.96;94646.09;4306906;33;20388;-58
2022/01/31 11:33:35;;;;;;;1.77;0.90;;;;;;;5.25;84.74;94657.06;4310695;33;20281;-56
2022/01/31 11:36:00;;;;;;;1.70;1.10;;;;;;;5.50;83.95;94643.69;4311204;33;20193;-58
2022/01/31 11:38:27;;;;;;;0.80;0.80;;;;;;;5.39;83.67;94647.47;4315925;32;20291;-59
2022/01/31 11:41:00;;;;;;;0.93;0.90;;;;;;;5.63;82.40;94641.44;4332817;32;20201;-58
2022/01/31 11:43:26;;;;;;;0.53;0.53;;;;;;;5.65;82.52;94639.31;4317950;32;20290;-59
2022/01/31 11:45:53;;;;;;;0.70;0.70;;;;;;;5.70;82.02;94657.69;4324637;32;20337;-58
2022/01/31 11:48:24;;;;;;;0.80;0.80;;;;;;;5.77;81.53;94660.78;4312254;32;20218;-58
2022/01/31 11:50:53;;;;;;;1.23;1.03;;;;;;;6.12;80.58;94636.72;4320496;32;20274;-58
2022/01/31 11:53:39;;;;;;;0.80;0.60;;;;;;;6.26;80.21;94638.66;4316547;32;20348;-58
2022/01/31 11:56:14;;;;;;;0.50;0.50;;;;;;;6.08;79.12;94638.34;4310917;33;20271;-58
2022/01/31 11:58:53;;;;;;;0.43;0.43;;;;;;;6.27;81.90;94634.97;4330385;32;20388;-58
2022/01/31 12:01:20;;;;;;;1.07;0.50;;;;;;;5.93;78.71;94638.53;4317346;32;20294;-58
2022/01/31 12:03:50;;;;;;;0.63;0.50;;;;;;;6.27;78.63;94633.13;4312016;32;20324;-58
2022/01/31 12:06:21;;;;;;;2.53;0.50;;;;;;;6.06;79.32;94627.31;4331251;32;20288;-56
2022/01/31 12:08:49;;;;;;;0.53;0.53;;;;;;;5.98;79.66;94641.13;4328155;32;20285;-58
2022/01/31 12:11:23;;;;;;;0.40;0.40;;;;;;;5.93;79.70;94629.84;4334960;32;20277;-58
2022/01/31 12:13:53;;;;;;;0.40;0.40;;;;;;;5.94;78.24;94624.31;4332010;32;20361;-57
2022/01/31 12:19:18;;;;;;;0.73;0.60;;;;;;;5.78;77.78;94617.63;4337515;32;20266;-55
2022/01/31 12:24:38;;;;;;;0.30;0.30;;;;;;;5.81;79.43;94617.84;4314866;32;20325;-59
2022/01/31 12:27:15;;;;;;;0.50;0.50;;;;;;;6.01;76.16;94616.09;4339659;32;20312;-57
2022/01/31 12:29:50;;;;;;;0.50;0.50;;;;;;;6.02;76.42;94615.81;4326622;32;20279;-56
2022/01/31 12:32:25;;;;;;;0.50;0.50;;;;;;;6.12;75.46;94618.28;4337033;32;20277;-58
2022/01/31 12:34:54;;;;;;;1.67;0.77;;;;;;;6.12;75.63;94610.41;4346545;32;20281;-59